createdAt,value
2022-09-30T00:01:42.413Z,97017.09
2022-09-30T00:04:14.845Z,97015.23
2022-09-30T00:06:43.558Z,97008.30
2022-09-30T00:09:13.144Z,96996.09
2022-09-30T00:11:42.562Z,96998.41
2022-09-30T00:14:17.627Z,97003.59
2022-09-30T00:16:45.867Z,97006.75
2022-09-30T00:19:14.644Z,97004.66
2022-09-30T00:21:43.217Z,97006.33
2022-09-30T00:24:11.195Z,97010.48
2022-09-30T00:26:39.063Z,97007.05
2022-09-30T00:29:07.415Z,97006.77
2022-09-30T00:31:36.030Z,97012.02
2022-09-30T00:34:08.126Z,97012.66
2022-09-30T00:36:42.987Z,97010.71
2022-09-30T00:39:25.993Z,97003.57
2022-09-30T00:41:57.184Z,97004.65
2022-09-30T00:44:45.675Z,97012.54
2022-09-30T00:47:25.885Z,97012.31
2022-09-30T00:49:55.335Z,97007.63
2022-09-30T00:52:24.143Z,97010.63
2022-09-30T00:54:53.817Z,97008.44
2022-09-30T00:57:21.632Z,97005.84
2022-09-30T00:59:52.415Z,97005.08
2022-09-30T01:02:20.720Z,97002.56
2022-09-30T01:04:48.691Z,97000.41
2022-09-30T01:07:17.142Z,96996.22
2022-09-30T01:09:45.786Z,96993.99
2022-09-30T01:12:18.043Z,96995.11
2022-09-30T01:14:48.676Z,96995.15
2022-09-30T01:17:34.359Z,96997.92
2022-09-30T01:20:03.464Z,96997.13
2022-09-30T01:22:49.551Z,96998.63
2022-09-30T01:25:36.210Z,97002.18
2022-09-30T01:28:13.195Z,97004.61
2022-09-30T01:30:47.084Z,97006.60
2022-09-30T01:33:44.709Z,97008.55
2022-09-30T01:36:17.567Z,97013.15
2022-09-30T01:39:19.098Z,97015.92
2022-09-30T01:41:54.910Z,97013.80
2022-09-30T01:44:43.843Z,97011.40
2022-09-30T01:47:27.197Z,97009.86
2022-09-30T01:50:16.593Z,97006.66
2022-09-30T01:52:56.704Z,97001.98
2022-09-30T01:55:35.755Z,96995.67
2022-09-30T01:58:15.093Z,97002.02
2022-09-30T02:00:49.303Z,97004.55
2022-09-30T02:03:37.701Z,97002.55
2022-09-30T02:06:24.330Z,97003.80
2022-09-30T02:09:16.699Z,97009.91
2022-09-30T02:11:44.679Z,97015.27
2022-09-30T02:14:32.171Z,97023.67
2022-09-30T02:17:10.164Z,97030.10
2022-09-30T02:19:46.648Z,97030.87
2022-09-30T02:22:26.363Z,97028.39
2022-09-30T02:25:01.760Z,97022.79
2022-09-30T02:27:41.145Z,97027.89
2022-09-30T02:30:12.468Z,97022.16
2022-09-30T02:32:52.858Z,97022.12
2022-09-30T02:35:27.326Z,97020.46
2022-09-30T02:38:19.803Z,97015.16
2022-09-30T02:40:52.502Z,97010.25
2022-09-30T02:43:21.556Z,97011.27
2022-09-30T02:46:01.409Z,97010.02
2022-09-30T02:48:49.248Z,97003.48
2022-09-30T02:51:41.409Z,97008.42
2022-09-30T02:54:15.072Z,97011.08
2022-09-30T02:57:16.055Z,97019.14
2022-09-30T02:59:43.963Z,97031.64
2022-09-30T03:02:11.959Z,97034.12
2022-09-30T03:04:42.023Z,97032.09
2022-09-30T03:07:10.751Z,97028.23
2022-09-30T03:09:38.936Z,97028.01
2022-09-30T03:12:23.745Z,97032.30
2022-09-30T03:14:54.720Z,97036.23
2022-09-30T03:18:04.518Z,97035.58
2022-09-30T03:20:59.213Z,97032.50
2022-09-30T03:24:22.783Z,97030.79
2022-09-30T03:26:58.501Z,97034.67
2022-09-30T03:29:43.644Z,97040.29
2022-09-30T03:32:40.059Z,97042.16
2022-09-30T03:35:16.947Z,97043.95
2022-09-30T03:38:02.631Z,97044.31
2022-09-30T03:40:58.420Z,97049.39
2022-09-30T03:43:29.493Z,97049.83
2022-09-30T03:46:27.957Z,97055.20
2022-09-30T03:49:01.265Z,97051.31
2022-09-30T03:51:30.234Z,97046.23
2022-09-30T03:53:59.224Z,97040.61
2022-09-30T03:56:29.851Z,97038.66
2022-09-30T03:58:58.452Z,97041.08
2022-09-30T04:01:26.398Z,97041.20
2022-09-30T04:03:54.584Z,97043.05
2022-09-30T04:06:25.103Z,97041.17
2022-09-30T04:08:54.162Z,97039.51
2022-09-30T04:11:22.068Z,97042.64
2022-09-30T04:13:49.884Z,97034.94
2022-09-30T04:16:17.804Z,97046.83
2022-09-30T04:18:45.683Z,97049.83
2022-09-30T04:21:15.576Z,97049.74
2022-09-30T04:23:43.746Z,97050.94
2022-09-30T04:26:14.395Z,97050.90
2022-09-30T04:28:43.062Z,97053.16
2022-09-30T04:31:12.679Z,97057.82
2022-09-30T04:33:40.927Z,97056.05
2022-09-30T04:36:09.804Z,97054.20
2022-09-30T04:38:37.647Z,97050.54
2022-09-30T04:41:07.031Z,97051.98
2022-09-30T04:43:34.951Z,97056.92
2022-09-30T04:46:03.029Z,97064.41
2022-09-30T04:48:31.572Z,97066.62
2022-09-30T04:51:02.534Z,97065.88
2022-09-30T04:53:30.628Z,97067.05
2022-09-30T04:56:02.381Z,97071.34
2022-09-30T04:58:36.858Z,97076.37
2022-09-30T05:01:14.555Z,97084.92
2022-09-30T05:03:43.668Z,97090.00
2022-09-30T05:06:12.462Z,97097.49
2022-09-30T05:08:46.031Z,97104.05
2022-09-30T05:11:20.436Z,97109.15
2022-09-30T05:13:49.243Z,97113.27
2022-09-30T05:16:18.747Z,97120.42
2022-09-30T05:18:47.246Z,97120.40
2022-09-30T05:21:20.805Z,97114.17
2022-09-30T05:23:49.027Z,97117.23
2022-09-30T05:26:17.154Z,97128.38
2022-09-30T05:28:45.415Z,97133.58
2022-09-30T05:31:13.795Z,97139.25
2022-09-30T05:33:42.148Z,97148.36
2022-09-30T05:36:14.136Z,97156.95
2022-09-30T05:38:42.361Z,97155.13
2022-09-30T05:41:13.514Z,97151.42
2022-09-30T05:43:47.995Z,97153.41
2022-09-30T05:46:19.231Z,97161.94
2022-09-30T05:48:47.569Z,97161.20
2022-09-30T05:51:15.756Z,97156.94
2022-09-30T05:53:44.940Z,97156.91
2022-09-30T05:56:12.884Z,97153.45
2022-09-30T05:58:42.055Z,97152.92
2022-09-30T06:01:15.083Z,97150.60
2022-09-30T06:03:45.644Z,97151.11
2022-09-30T06:06:14.781Z,97154.02
2022-09-30T06:08:43.902Z,97167.93
2022-09-30T06:11:17.824Z,97173.63
2022-09-30T06:13:50.242Z,97174.60
2022-09-30T06:16:18.999Z,97176.85
2022-09-30T06:18:47.532Z,97176.33
2022-09-30T06:21:17.703Z,97177.05
2022-09-30T06:23:46.781Z,97181.79
2022-09-30T06:26:15.194Z,97183.78
2022-09-30T06:28:45.394Z,97181.88
2022-09-30T06:31:13.513Z,97181.09
2022-09-30T06:33:42.699Z,97186.64
2022-09-30T06:36:10.961Z,97190.88
2022-09-30T06:38:40.140Z,97195.44
2022-09-30T06:41:08.885Z,97196.52
2022-09-30T06:43:44.622Z,97202.84
2022-09-30T06:46:27.242Z,97202.73
2022-09-30T06:49:14.590Z,97201.95
2022-09-30T06:51:43.109Z,97201.89
2022-09-30T06:54:11.419Z,97201.48
2022-09-30T06:56:39.389Z,97206.77
2022-09-30T06:59:07.749Z,97206.21
2022-09-30T07:01:35.673Z,97207.79
2022-09-30T07:04:09.711Z,97207.67
2022-09-30T07:06:39.076Z,97209.25
2022-09-30T07:09:08.143Z,97209.50
2022-09-30T07:11:37.542Z,97207.36
2022-09-30T07:14:07.002Z,97203.38
2022-09-30T07:16:35.082Z,97203.19
2022-09-30T07:27:52.364Z,97187.71
2022-09-30T07:30:27.122Z,97196.52
2022-09-30T07:32:55.893Z,97199.31
2022-09-30T07:35:24.098Z,97200.17
2022-09-30T07:37:52.266Z,97199.59
2022-09-30T07:40:20.403Z,97198.73
2022-09-30T07:42:48.669Z,97196.33
2022-09-30T07:45:19.570Z,97194.98
2022-09-30T07:47:53.334Z,97205.51
2022-09-30T07:50:22.282Z,97212.94
2022-09-30T07:52:50.532Z,97222.09
2022-09-30T07:55:18.913Z,97225.73
2022-09-30T07:57:48.641Z,97232.48
2022-09-30T08:00:40.958Z,97239.99
2022-09-30T08:03:05.635Z,97241.86
2022-09-30T08:05:40.134Z,97243.86
2022-09-30T08:08:08.245Z,97243.77
2022-09-30T08:10:36.483Z,97247.66
2022-09-30T08:13:06.371Z,97252.85
2022-09-30T08:15:35.675Z,97250.45
2022-09-30T08:18:04.284Z,97256.13
2022-09-30T08:20:32.529Z,97260.77
2022-09-30T08:23:01.374Z,97262.55
2022-09-30T08:25:29.644Z,97262.05
2022-09-30T08:27:59.469Z,97257.13
2022-09-30T08:30:28.290Z,97254.36
2022-09-30T08:32:58.043Z,97251.37
2022-09-30T08:35:26.893Z,97239.58
2022-09-30T08:37:55.695Z,97240.89
2022-09-30T08:40:32.393Z,97246.43
2022-09-30T08:43:27.852Z,97248.69
2022-09-30T08:46:03.941Z,97253.92
2022-09-30T08:48:38.769Z,97258.20
2022-09-30T08:51:24.744Z,97258.22
2022-09-30T08:53:55.332Z,97259.59
2022-09-30T08:56:32.207Z,97262.13
2022-09-30T08:59:08.383Z,97264.83
2022-09-30T09:01:41.366Z,97264.05
2022-09-30T09:04:10.300Z,97266.84
2022-09-30T09:06:38.666Z,97266.77
2022-09-30T09:09:28.014Z,97267.93
2022-09-30T09:12:09.768Z,97271.81
2022-09-30T09:14:50.837Z,97275.11
2022-09-30T09:18:24.153Z,97277.80
2022-09-30T09:20:58.558Z,97278.56
2022-09-30T09:23:30.197Z,97281.36
2022-09-30T09:25:58.883Z,97283.75
2022-09-30T09:28:47.274Z,97282.36
2022-09-30T09:31:20.807Z,97269.07
2022-09-30T09:33:50.386Z,97261.63
2022-09-30T09:36:38.446Z,97263.20
2022-09-30T09:39:37.227Z,97264.20
2022-09-30T09:42:28.003Z,97264.34
2022-09-30T09:45:04.481Z,97265.65
2022-09-30T09:47:33.672Z,97263.63
2022-09-30T09:50:04.328Z,97263.40
2022-09-30T09:52:54.841Z,97259.98
2022-09-30T09:55:23.463Z,97253.56
2022-09-30T09:58:14.251Z,97251.95
2022-09-30T10:00:42.877Z,97252.18
2022-09-30T10:03:24.414Z,97249.16
2022-09-30T10:06:03.229Z,97247.68
2022-09-30T10:08:34.549Z,97250.29
2022-09-30T10:11:07.140Z,97254.23
2022-09-30T10:13:38.115Z,97249.42
2022-09-30T10:16:07.217Z,97249.49
2022-09-30T10:18:37.715Z,97245.39
2022-09-30T10:21:27.865Z,97238.78
2022-09-30T10:24:00.475Z,97243.73
2022-09-30T10:26:29.441Z,97248.53
2022-09-30T10:29:01.115Z,97252.52
2022-09-30T10:31:36.496Z,97256.46
2022-09-30T10:34:52.618Z,97251.20
2022-09-30T10:37:25.489Z,97237.10
2022-09-30T10:40:09.181Z,97230.83
2022-09-30T10:42:41.702Z,97232.11
2022-09-30T10:45:27.036Z,97230.55
2022-09-30T10:47:57.143Z,97226.66
2022-09-30T10:50:27.902Z,97228.52
2022-09-30T10:53:04.919Z,97224.16
2022-09-30T10:55:42.986Z,97224.01
2022-09-30T10:58:31.263Z,97217.61
2022-09-30T11:01:50.575Z,97226.34
2022-09-30T11:04:43.989Z,97228.51
2022-09-30T11:07:31.567Z,97229.83
2022-09-30T11:10:21.257Z,97231.45
2022-09-30T11:13:04.680Z,97235.13
2022-09-30T11:15:42.965Z,97234.60
2022-09-30T11:18:22.987Z,97224.85
2022-09-30T11:20:57.670Z,97222.93
2022-09-30T11:23:37.471Z,97229.70
2022-09-30T11:26:11.832Z,97237.34
2022-09-30T11:28:56.601Z,97246.27
2022-09-30T11:31:31.517Z,97248.08
2022-09-30T11:34:19.010Z,97248.77
2022-09-30T11:36:55.877Z,97260.21
2022-09-30T11:39:55.181Z,97285.88
2022-09-30T11:42:44.604Z,97303.92
2022-09-30T11:45:15.359Z,97325.79
2022-09-30T11:48:10.022Z,97341.23
2022-09-30T11:51:07.823Z,97352.30
2022-09-30T11:54:21.632Z,97359.27
2022-09-30T11:56:52.627Z,97364.23
2022-09-30T11:59:48.828Z,97369.30
2022-09-30T12:02:19.800Z,97364.50
2022-09-30T12:04:51.448Z,97362.56
2022-09-30T12:07:36.841Z,97371.23
2022-09-30T12:10:08.065Z,97371.98
2022-09-30T12:12:36.945Z,97369.84
2022-09-30T12:15:07.705Z,97373.34
2022-09-30T12:17:50.048Z,97372.89
2022-09-30T12:20:28.121Z,97372.80
2022-09-30T12:23:31.793Z,97374.61
2022-09-30T12:26:03.002Z,97372.63
2022-09-30T12:29:36.833Z,97372.54
2022-09-30T12:32:23.631Z,97368.54
2022-09-30T12:35:19.947Z,97359.75
2022-09-30T12:38:03.219Z,97354.40
2022-09-30T12:41:01.096Z,97356.56
2022-09-30T12:44:17.938Z,97358.08
2022-09-30T12:46:58.733Z,97349.98
2022-09-30T12:49:30.330Z,97352.20
2022-09-30T12:52:05.473Z,97360.19
2022-09-30T12:54:41.110Z,97360.80
2022-09-30T12:57:10.899Z,97364.34
2022-09-30T12:59:52.956Z,97367.86
2022-09-30T13:02:35.567Z,97365.05
2022-09-30T13:05:30.311Z,97354.63
2022-09-30T13:08:04.672Z,97360.31
2022-09-30T13:10:38.449Z,97361.55
2022-09-30T13:13:13.392Z,97358.48
2022-09-30T13:15:46.253Z,97358.30
2022-09-30T13:18:20.755Z,97358.22
2022-09-30T13:21:10.865Z,97355.71
2022-09-30T13:23:58.661Z,97355.13
2022-09-30T13:26:29.850Z,97359.54
2022-09-30T13:29:01.037Z,97360.91
2022-09-30T13:31:45.375Z,97361.98
2022-09-30T13:34:23.073Z,97354.66
2022-09-30T13:36:51.058Z,97354.84
2022-09-30T13:39:27.330Z,97347.64
2022-09-30T13:41:55.646Z,97348.34
2022-09-30T13:44:57.438Z,97347.83
2022-09-30T13:47:33.437Z,97350.31
2022-09-30T13:50:19.629Z,97346.73
2022-09-30T13:52:54.083Z,97346.56
2022-09-30T13:55:42.034Z,97348.34
2022-09-30T13:58:38.212Z,97353.77
2022-09-30T14:01:26.422Z,97356.54
2022-09-30T14:04:17.423Z,97359.70
2022-09-30T14:07:11.638Z,97367.52
2022-09-30T14:10:09.069Z,97371.77
2022-09-30T14:12:53.226Z,97370.35
2022-09-30T14:15:28.111Z,97367.27
2022-09-30T14:18:23.525Z,97357.98
2022-09-30T14:20:51.931Z,97354.80
2022-09-30T14:23:23.317Z,97356.34
2022-09-30T14:26:39.005Z,97360.52
2022-09-30T14:29:47.057Z,97363.44
2022-09-30T14:32:26.742Z,97363.46
2022-09-30T14:35:00.747Z,97364.36
2022-09-30T14:38:04.108Z,97369.04
2022-09-30T14:40:40.706Z,97371.09
2022-09-30T14:43:16.242Z,97372.45
2022-09-30T14:45:47.411Z,97373.98
2022-09-30T14:48:25.567Z,97378.21
2022-09-30T14:51:05.161Z,97387.59
2022-09-30T14:53:36.740Z,97391.53
2022-09-30T14:56:22.121Z,97389.48
2022-09-30T14:58:53.301Z,97390.17
2022-09-30T15:01:23.044Z,97395.13
2022-09-30T15:04:08.649Z,97398.54
2022-09-30T15:06:41.382Z,97396.73
2022-09-30T15:09:43.657Z,97397.35
2022-09-30T15:12:27.134Z,97401.19
2022-09-30T15:15:00.538Z,97399.95
2022-09-30T15:17:31.199Z,97409.02
2022-09-30T15:19:59.907Z,97412.23
2022-09-30T15:22:30.561Z,97415.45
2022-09-30T15:24:59.970Z,97418.48
2022-09-30T15:27:31.450Z,97421.59
2022-09-30T15:30:23.274Z,97424.92
2022-09-30T15:32:58.936Z,97432.85
2022-09-30T15:35:30.229Z,97435.77
2022-09-30T15:38:10.691Z,97434.31
2022-09-30T15:40:50.395Z,97440.19
2022-09-30T15:43:42.128Z,97446.28
2022-09-30T15:46:35.415Z,97446.08
2022-09-30T15:49:38.484Z,97449.86
2022-09-30T15:52:36.996Z,97451.50
2022-09-30T15:55:44.323Z,97455.00
2022-09-30T15:58:33.483Z,97463.56
2022-09-30T16:01:14.382Z,97466.08
2022-09-30T16:03:49.666Z,97471.11
2022-09-30T16:06:24.077Z,97472.96
2022-09-30T16:09:18.937Z,97478.39
2022-09-30T16:12:18.406Z,97480.45
2022-09-30T16:14:58.485Z,97475.17
2022-09-30T16:17:38.827Z,97479.05
2022-09-30T16:20:17.724Z,97478.21
2022-09-30T16:22:45.803Z,97485.79
2022-09-30T16:25:19.611Z,97490.52
2022-09-30T16:27:48.599Z,97488.52
2022-09-30T16:30:19.322Z,97497.89
2022-09-30T16:32:51.060Z,97504.26
2022-09-30T16:35:24.569Z,97505.29
2022-09-30T16:38:03.296Z,97512.33
2022-09-30T16:40:35.877Z,97518.64
2022-09-30T16:43:07.805Z,97520.52
2022-09-30T16:45:38.197Z,97527.84
2022-09-30T16:48:14.961Z,97527.81
2022-09-30T16:50:51.911Z,97532.61
2022-09-30T16:53:20.662Z,97536.80
2022-09-30T16:55:49.004Z,97540.11
2022-09-30T16:58:17.445Z,97544.66
2022-09-30T17:00:46.596Z,97548.02
2022-09-30T17:03:17.923Z,97554.56
2022-09-30T17:05:51.932Z,97567.35
2022-09-30T17:08:22.712Z,97577.17
2022-09-30T17:10:51.299Z,97577.09
2022-09-30T17:13:20.099Z,97575.77
2022-09-30T17:15:51.182Z,97576.88
2022-09-30T17:18:20.322Z,97574.33
2022-09-30T17:20:53.104Z,97581.93
2022-09-30T17:23:23.922Z,97586.39
2022-09-30T17:25:52.840Z,97587.06
2022-09-30T17:28:22.383Z,97593.48
2022-09-30T17:30:51.001Z,97593.05
2022-09-30T17:33:20.018Z,97588.80
2022-09-30T17:36:00.902Z,97594.83
2022-09-30T17:38:30.096Z,97601.43
2022-09-30T17:41:17.512Z,97604.27
2022-09-30T17:43:46.053Z,97601.20
2022-09-30T17:46:19.781Z,97602.13
2022-09-30T17:48:50.459Z,97603.05
2022-09-30T17:51:18.716Z,97608.12
2022-09-30T17:53:47.187Z,97607.86
2022-09-30T17:56:22.750Z,97608.62
2022-09-30T17:58:51.407Z,97618.13
2022-09-30T18:01:21.856Z,97625.69
2022-09-30T18:03:53.622Z,97627.30
2022-09-30T18:06:22.185Z,97629.27
2022-09-30T18:08:51.639Z,97635.03
2022-09-30T18:11:26.941Z,97638.13
2022-09-30T18:13:58.136Z,97644.15
2022-09-30T18:16:30.730Z,97649.86
2022-09-30T18:19:00.524Z,97651.27
2022-09-30T18:21:28.878Z,97659.73
2022-09-30T18:23:57.944Z,97660.04
2022-09-30T18:26:33.493Z,97663.65
2022-09-30T18:29:05.523Z,97666.20
2022-09-30T18:31:38.500Z,97664.86
2022-09-30T18:34:07.536Z,97665.29
2022-09-30T18:36:37.552Z,97671.38
2022-09-30T18:39:06.858Z,97674.04
2022-09-30T18:41:37.395Z,97686.11
2022-09-30T18:44:07.353Z,97683.65
2022-09-30T18:46:36.217Z,97683.99
2022-09-30T18:49:04.712Z,97683.64
2022-09-30T18:51:32.997Z,97686.63
2022-09-30T18:54:01.677Z,97689.44
2022-09-30T18:56:32.256Z,97691.39
2022-09-30T18:59:04.480Z,97695.02
2022-09-30T19:01:34.432Z,97696.38
2022-09-30T19:04:03.798Z,97695.67
2022-09-30T19:06:33.277Z,97701.05
2022-09-30T19:09:01.580Z,97708.66
2022-09-30T19:11:30.807Z,97706.98
2022-09-30T19:14:01.673Z,97710.27
2022-09-30T19:16:36.595Z,97710.54
2022-09-30T19:19:10.608Z,97706.41
2022-09-30T19:21:40.035Z,97704.39
2022-09-30T19:24:09.460Z,97701.46
2022-09-30T19:26:38.994Z,97699.90
2022-09-30T19:29:09.791Z,97700.78
2022-09-30T19:31:38.348Z,97699.23
2022-09-30T19:34:07.380Z,97694.86
2022-09-30T19:36:48.589Z,97694.05
2022-09-30T19:39:19.226Z,97695.20
2022-09-30T19:41:48.199Z,97697.63
2022-09-30T19:44:22.408Z,97703.55
2022-09-30T19:46:51.684Z,97703.17
2022-09-30T19:49:21.785Z,97702.98
2022-09-30T19:51:53.231Z,97701.52
2022-09-30T19:54:37.314Z,97697.21
2022-09-30T19:57:08.294Z,97696.12
2022-09-30T19:59:38.555Z,97698.98
2022-09-30T20:02:06.998Z,97703.66
2022-09-30T20:04:35.502Z,97712.55
2022-09-30T20:07:04.583Z,97715.61
2022-09-30T20:09:32.753Z,97713.91
2022-09-30T20:12:01.055Z,97716.02
2022-09-30T20:14:47.591Z,97717.28
2022-09-30T20:17:16.407Z,97717.49
2022-09-30T20:20:04.390Z,97716.84
2022-09-30T20:22:32.844Z,97711.80
2022-09-30T20:25:01.107Z,97712.38
2022-09-30T20:27:33.081Z,97713.35
2022-09-30T20:30:01.373Z,97713.08
2022-09-30T20:32:31.612Z,97709.48
2022-09-30T20:35:00.137Z,97703.98
2022-09-30T20:37:28.440Z,97702.52
2022-09-30T20:39:58.019Z,97700.71
2022-09-30T20:42:29.754Z,97706.27
2022-09-30T20:45:01.214Z,97713.18
2022-09-30T20:47:29.302Z,97712.90
2022-09-30T20:49:58.723Z,97712.05
2022-09-30T20:52:27.226Z,97717.10
2022-09-30T20:54:59.452Z,97716.91
2022-09-30T20:57:31.252Z,97720.60
2022-09-30T21:00:00.080Z,97722.71
2022-09-30T21:02:29.177Z,97722.72
2022-09-30T21:04:58.138Z,97720.61
2022-09-30T21:07:27.265Z,97716.22
2022-09-30T21:09:55.183Z,97718.91
2022-09-30T21:12:23.135Z,97721.95
2022-09-30T21:14:51.175Z,97719.92
2022-09-30T21:17:19.206Z,97715.23
2022-09-30T21:19:47.223Z,97713.86
2022-09-30T21:22:15.551Z,97712.12
2022-09-30T21:24:43.715Z,97712.09
2022-09-30T21:27:12.077Z,97712.42
2022-09-30T21:29:40.390Z,97715.02
2022-09-30T21:32:08.384Z,97727.46
2022-09-30T21:34:38.907Z,97731.66
2022-09-30T21:37:07.599Z,97734.45
2022-09-30T21:39:35.672Z,97732.27
2022-09-30T21:42:04.310Z,97727.79
2022-09-30T21:44:32.503Z,97722.36
2022-09-30T21:47:00.595Z,97719.74
2022-09-30T21:49:28.742Z,97717.52
2022-09-30T21:51:57.765Z,97715.88
2022-09-30T21:54:27.897Z,97715.14
2022-09-30T21:56:56.077Z,97715.45
2022-09-30T21:59:25.150Z,97718.77
2022-09-30T22:01:53.418Z,97725.73
2022-09-30T22:04:21.683Z,97730.21
2022-09-30T22:06:49.953Z,97732.54
2022-09-30T22:09:18.368Z,97730.60
2022-09-30T22:11:46.449Z,97732.23
2022-09-30T22:14:14.849Z,97734.52
2022-09-30T22:16:42.854Z,97732.94
2022-09-30T22:19:10.913Z,97731.79
2022-09-30T22:21:38.916Z,97733.98
2022-09-30T22:24:09.421Z,97735.88
2022-09-30T22:26:38.102Z,97737.48
2022-09-30T22:29:11.227Z,97736.66
2022-09-30T22:31:39.930Z,97734.48
2022-09-30T22:34:31.938Z,97734.63
2022-09-30T22:37:18.625Z,97725.59
2022-09-30T22:39:46.721Z,97720.68
2022-09-30T22:42:14.758Z,97723.30
2022-09-30T22:44:42.829Z,97727.84
2022-09-30T22:47:11.729Z,97727.95
2022-09-30T22:49:40.109Z,97731.65
2022-09-30T22:52:08.974Z,97735.89
2022-09-30T22:54:37.616Z,97740.13
2022-09-30T22:57:09.279Z,97738.93
2022-09-30T22:59:37.635Z,97737.86
2022-09-30T23:02:06.171Z,97745.79
2022-09-30T23:04:34.570Z,97747.98
2022-09-30T23:07:02.688Z,97748.23
2022-09-30T23:09:31.340Z,97750.42
2022-09-30T23:11:59.678Z,97749.66
2022-09-30T23:14:29.032Z,97746.46
2022-09-30T23:16:56.999Z,97746.80
2022-09-30T23:19:25.235Z,97749.04
2022-09-30T23:21:53.830Z,97745.11
2022-09-30T23:24:21.979Z,97737.14
2022-09-30T23:26:50.562Z,97740.68
2022-09-30T23:29:18.694Z,97747.38
2022-09-30T23:31:46.761Z,97751.73
2022-09-30T23:34:14.829Z,97756.63
2022-09-30T23:36:43.024Z,97756.23
2022-09-30T23:39:15.669Z,97760.41
2022-09-30T23:41:46.615Z,97757.60
2022-09-30T23:44:18.818Z,97756.52
2022-09-30T23:47:07.088Z,97746.70
2022-09-30T23:49:39.053Z,97741.08
2022-09-30T23:52:12.697Z,97740.34
2022-09-30T23:54:42.118Z,97740.33
2022-09-30T23:57:13.689Z,97749.45
2022-09-30T23:59:41.765Z,97747.38
